Time;durP1;ratioP1;P1;durP2;ratioP2;P2;SDS_P1;SDS_P2;PMS_P1;PMS_P2;Temp;Humidity;BMP_temperature;BMP_pressure;BME280_temperature;BME280_humidity;BME280_pressure;Samples;Min_cycle;Max_cycle;Signal;HPM_P1;HPM_P2
2024/01/12 00:00:19;;;;;;;85.35;34.42;;;;;;;-5.52;100.00;97548.97;5135510;27;20043;-73
2024/01/12 00:02:44;;;;;;;74.75;29.05;;;;;;;-5.61;100.00;97544.63;5154822;27;20015;-73
2024/01/12 00:05:10;;;;;;;66.35;28.90;;;;;;;-5.63;100.00;97541.13;5154407;27;20017;-72
2024/01/12 00:07:35;;;;;;;85.05;32.42;;;;;;;-5.67;100.00;97546.34;5132196;27;20030;-72
2024/01/12 00:10:01;;;;;;;76.88;30.63;;;;;;;-5.57;100.00;97548.09;5132272;27;20011;-73
2024/01/12 00:12:27;;;;;;;75.97;31.15;;;;;;;-5.50;100.00;97550.69;5115001;27;20494;-73
2024/01/12 00:14:52;;;;;;;81.65;32.78;;;;;;;-5.44;100.00;97552.44;5114964;27;20049;-72
2024/01/12 00:17:18;;;;;;;65.60;29.63;;;;;;;-5.45;100.00;97555.06;5133194;27;20031;-73
2024/01/12 00:19:48;;;;;;;80.15;30.70;;;;;;;-5.56;100.00;97553.28;5133396;27;20023;-72
2024/01/12 00:22:14;;;;;;;90.43;36.00;;;;;;;-5.50;100.00;97561.13;5132164;27;20035;-72
2024/01/12 00:24:39;;;;;;;67.40;28.92;;;;;;;-5.55;100.00;97559.38;5133018;27;20023;-72
2024/01/12 00:27:05;;;;;;;70.57;28.58;;;;;;;-5.59;100.00;97549.81;5131852;27;20026;-72
2024/01/12 00:29:31;;;;;;;71.93;29.17;;;;;;;-5.51;100.00;97561.13;5132945;27;20030;-73
2024/01/12 00:31:56;;;;;;;75.78;30.25;;;;;;;-5.52;100.00;97559.38;5135277;27;20535;-73
2024/01/12 00:34:23;;;;;;;70.65;28.98;;;;;;;-5.49;100.00;97559.38;5117783;27;20027;-73
2024/01/12 00:36:49;;;;;;;75.50;30.23;;;;;;;-5.48;100.00;97555.91;5131762;27;20039;-73
2024/01/12 00:39:17;;;;;;;67.05;29.08;;;;;;;-5.52;100.00;97554.16;5114377;27;20566;-73
2024/01/12 00:41:43;;;;;;;81.93;33.40;;;;;;;-5.54;100.00;97543.75;5132706;27;20039;-73
2024/01/12 00:44:09;;;;;;;69.07;29.00;;;;;;;-5.49;100.00;97536.81;5131501;27;20023;-73
2024/01/12 00:46:34;;;;;;;75.30;31.23;;;;;;;-5.51;100.00;97537.69;5131155;27;20126;-73
2024/01/12 00:49:00;;;;;;;75.30;31.13;;;;;;;-5.44;100.00;97541.16;5131485;27;20401;-74
2024/01/12 00:51:26;;;;;;;69.47;30.10;;;;;;;-5.52;100.00;97555.03;5130509;27;20098;-73
2024/01/12 00:53:57;;;;;;;79.40;31.10;;;;;;;-5.78;100.00;97535.06;5114083;27;20471;-73
2024/01/12 00:59:32;;;;;;;92.25;35.92;;;;;;;-5.80;100.00;97527.22;5107751;27;20066;-72
2024/01/12 01:01:58;;;;;;;102.55;38.70;;;;;;;-5.84;100.00;97522.88;5131253;27;20050;-72
2024/01/12 01:04:27;;;;;;;100.80;40.85;;;;;;;-5.72;100.00;97532.47;5114049;27;20482;-74
2024/01/12 01:06:53;;;;;;;119.80;44.15;;;;;;;-5.77;100.00;97529.84;5131113;27;20023;-73
2024/01/12 01:09:19;;;;;;;105.18;43.63;;;;;;;-5.68;100.00;97531.56;5116623;27;20035;-74
2024/01/12 01:11:44;;;;;;;113.95;45.97;;;;;;;-5.67;100.00;97530.72;5152834;27;20027;-72
2024/01/12 01:14:10;;;;;;;110.75;42.63;;;;;;;-5.64;100.00;97533.31;5134339;27;20076;-73
2024/01/12 01:16:36;;;;;;;103.75;39.65;;;;;;;-5.58;100.00;97523.78;5116807;27;20037;-72
2024/01/12 01:19:01;;;;;;;107.63;40.83;;;;;;;-5.63;100.00;97514.25;5134293;27;20470;-72
2024/01/12 01:21:27;;;;;;;101.70;41.33;;;;;;;-5.60;100.00;97520.28;5134578;27;20029;-73
2024/01/12 01:23:54;;;;;;;116.25;44.38;;;;;;;-5.59;100.00;97519.44;5152405;27;20041;-71
2024/01/12 01:26:20;;;;;;;122.00;44.40;;;;;;;-5.64;100.00;97513.38;5134129;27;20029;-72
2024/01/12 01:28:45;;;;;;;97.18;38.45;;;;;;;-5.70;100.00;97499.47;5134039;27;20023;-73
2024/01/12 01:31:11;;;;;;;99.53;38.22;;;;;;;-5.70;100.00;97505.56;5134021;27;20022;-72
2024/01/12 01:33:36;;;;;;;108.40;39.90;;;;;;;-5.83;100.00;97495.09;5134204;27;20030;-72
2024/01/12 01:36:03;;;;;;;104.88;40.90;;;;;;;-5.88;100.00;97491.69;5144282;27;20050;-75
2024/01/12 01:38:28;;;;;;;106.07;40.88;;;;;;;-5.94;100.00;97489.06;5130599;27;20034;-74
2024/01/12 01:40:54;;;;;;;105.38;43.08;;;;;;;-5.95;100.00;97496.00;5131806;27;20023;-74
2024/01/12 01:43:21;;;;;;;117.22;40.65;;;;;;;-5.99;100.00;97476.03;5133674;27;20034;-75
2024/01/12 01:45:47;;;;;;;122.40;44.67;;;;;;;-5.94;100.00;97489.94;5113535;27;20105;-74
2024/01/12 01:48:13;;;;;;;125.22;45.20;;;;;;;-6.00;100.00;97476.06;5116683;27;20114;-76
2024/01/12 01:50:39;;;;;;;109.47;42.50;;;;;;;-5.90;100.00;97482.97;5130513;27;20101;-75
2024/01/12 01:53:05;;;;;;;109.30;41.50;;;;;;;-5.84;100.00;97483.81;5130171;27;20493;-75
2024/01/12 01:55:32;;;;;;;107.10;38.45;;;;;;;-5.84;100.00;97480.34;5130306;27;20106;-74
2024/01/12 01:57:58;;;;;;;113.45;43.00;;;;;;;-5.83;100.00;97489.91;5130344;27;20029;-75
2024/01/12 02:00:24;;;;;;;95.97;38.47;;;;;;;-6.02;100.00;97476.03;5141752;27;20043;-75
2024/01/12 02:02:49;;;;;;;99.35;38.85;;;;;;;-5.95;100.00;97474.31;5151951;27;20038;-74
2024/01/12 02:05:15;;;;;;;95.70;38.28;;;;;;;-5.83;100.00;97497.72;5133373;27;20034;-75
2024/01/12 02:07:42;;;;;;;73.63;31.00;;;;;;;-6.07;100.00;97489.06;5150930;27;20031;-75
2024/01/12 02:10:09;;;;;;;63.33;25.52;;;;;;;-6.17;100.00;97489.03;5133506;27;20075;-74
2024/01/12 02:12:35;;;;;;;67.40;26.90;;;;;;;-6.30;100.00;97489.84;5150898;27;20093;-74
2024/01/12 02:15:01;;;;;;;72.43;26.73;;;;;;;-6.29;100.00;97495.06;5150625;27;20517;-75
2024/01/12 02:17:27;;;;;;;62.85;25.33;;;;;;;-6.28;100.00;97503.75;5150662;27;20103;-76
2024/01/12 02:19:59;;;;;;;45.53;21.73;;;;;;;-6.29;100.00;97502.88;5152178;27;20496;-75
2024/01/12 02:22:25;;;;;;;;;;;;;;;-6.22;100.00;97512.44;5150454;27;20501;-74
2024/01/12 02:24:51;;;;;;;60.95;24.38;;;;;;;-6.27;100.00;97508.94;5150850;27;19945;-75
2024/01/12 02:27:16;;;;;;;64.88;25.60;;;;;;;-6.22;100.00;97506.38;5145105;27;20039;-75
2024/01/12 02:29:42;;;;;;;79.13;29.55;;;;;;;-6.12;100.00;97510.75;5150749;27;20057;-74
2024/01/12 02:32:08;;;;;;;54.15;23.75;;;;;;;-6.03;100.00;97508.16;5150447;27;20035;-74
2024/01/12 02:34:34;;;;;;;53.80;24.13;;;;;;;-6.01;100.00;97510.75;5131400;27;20449;-72
2024/01/12 02:36:59;;;;;;;60.08;25.02;;;;;;;-6.03;100.00;97518.56;5133161;27;20054;-73
2024/01/12 02:39:25;;;;;;;62.00;25.38;;;;;;;-5.97;100.00;97526.38;5116200;27;20435;-72
2024/01/12 02:41:51;;;;;;;61.20;26.50;;;;;;;-5.95;100.00;97526.38;5151654;27;20128;-72
2024/01/12 02:44:16;;;;;;;64.32;25.55;;;;;;;-5.96;100.00;97516.81;5115829;27;20034;-72
2024/01/12 02:46:42;;;;;;;65.40;27.02;;;;;;;-5.85;100.00;97517.72;5115959;27;20027;-72
2024/01/12 02:49:08;;;;;;;64.25;26.35;;;;;;;-5.83;100.00;97506.41;5132982;27;20117;-72
2024/01/12 02:51:34;;;;;;;63.63;24.60;;;;;;;-5.69;100.00;97515.06;5133347;27;20026;-71
2024/01/12 02:54:00;;;;;;;53.25;23.60;;;;;;;-5.61;100.00;97509.88;5151637;27;20034;-72
2024/01/12 02:56:25;;;;;;;60.63;22.63;;;;;;;-5.57;100.00;97516.84;5132711;27;20500;-72
2024/01/12 02:58:51;;;;;;;60.90;23.05;;;;;;;-5.58;100.00;97505.56;5133032;27;20038;-73
2024/01/12 03:01:20;;;;;;;57.40;23.60;;;;;;;-5.47;100.00;97512.50;5151191;27;20101;-71
2024/01/12 03:03:45;;;;;;;59.88;20.83;;;;;;;-5.48;100.00;97514.25;5133001;27;20038;-72
2024/01/12 03:06:11;;;;;;;57.83;23.67;;;;;;;-5.47;100.00;97513.34;5145872;27;20030;-72
2024/01/12 03:08:36;;;;;;;72.60;25.17;;;;;;;-5.54;100.00;97514.25;5150343;27;20109;-73
2024/01/12 03:11:02;;;;;;;57.90;23.67;;;;;;;-5.61;100.00;97510.75;5151437;27;20083;-71
2024/01/12 03:13:28;;;;;;;65.70;24.90;;;;;;;-5.61;100.00;97497.75;5137383;27;20023;-72
2024/01/12 03:15:54;;;;;;;58.38;24.92;;;;;;;-5.67;100.00;97494.25;5135824;27;20028;-71
2024/01/12 03:18:19;;;;;;;56.13;22.40;;;;;;;-5.77;100.00;97492.50;5154960;27;20031;-72
2024/01/12 03:20:45;;;;;;;51.58;21.13;;;;;;;-5.84;100.00;97489.03;5136569;27;20503;-73
2024/01/12 03:23:14;;;;;;;51.05;21.88;;;;;;;-5.75;100.00;97496.00;5145119;27;20481;-73
2024/01/12 03:25:50;;;;;;;50.60;20.30;;;;;;;-5.72;100.00;97493.41;5136393;27;20114;-72
2024/01/12 03:28:19;;;;;;;43.47;19.02;;;;;;;-5.69;100.00;97475.19;5139182;27;20535;-73
2024/01/12 03:30:48;;;;;;;50.00;19.83;;;;;;;-5.65;100.00;97484.69;5129071;27;20052;-72
2024/01/12 03:33:25;;;;;;;46.88;19.77;;;;;;;-5.75;100.00;97478.63;5139222;27;20030;-72
2024/01/12 03:35:58;;;;;;;43.53;19.50;;;;;;;-5.75;100.00;97468.19;5155025;27;20111;-74
2024/01/12 03:38:27;;;;;;;46.78;20.23;;;;;;;-5.75;100.00;97456.94;5126253;27;20042;-73
2024/01/12 03:41:04;;;;;;;51.42;20.85;;;;;;;-5.73;100.00;97455.19;5144681;27;20107;-72
2024/01/12 03:43:30;;;;;;;49.83;21.13;;;;;;;-5.68;100.00;97454.31;5147158;27;20034;-72
2024/01/12 03:46:04;;;;;;;52.05;21.40;;;;;;;-5.66;100.00;97441.31;5144570;27;20390;-71
2024/01/12 03:48:29;;;;;;;55.03;22.60;;;;;;;-5.51;100.00;97475.16;5124697;27;20030;-72
2024/01/12 03:51:09;;;;;;;45.20;19.02;;;;;;;-5.43;100.00;97483.84;5151639;27;20018;-73
2024/01/12 03:53:45;;;;;;;47.53;20.67;;;;;;;-5.45;100.00;97490.78;5147900;27;20037;-72
2024/01/12 03:56:18;;;;;;;54.72;20.63;;;;;;;-5.35;100.00;97486.44;5142926;27;20022;-77
2024/01/12 03:58:59;;;;;;;46.33;20.42;;;;;;;-5.28;100.00;97470.78;5150993;27;20022;-77
2024/01/12 04:01:30;;;;;;;83.10;27.65;;;;;;;-5.47;100.00;97454.31;5135177;27;20425;-77
2024/01/12 04:03:56;;;;;;;98.18;31.80;;;;;;;-5.49;100.00;97466.47;5125616;27;20135;-76
2024/01/12 04:06:22;;;;;;;106.18;35.53;;;;;;;-5.33;100.00;97466.44;5117938;27;20452;-77
2024/01/12 04:09:01;;;;;;;;;;;;;;;;;;;;;
2024/01/12 04:11:43;;;;;;;84.20;31.95;;;;;;;-5.00;100.00;97467.25;5154354;27;20043;-76
2024/01/12 04:14:13;;;;;;;84.18;31.23;;;;;;;-4.98;100.00;97454.19;5128474;27;20118;-75
2024/01/12 04:16:41;;;;;;;90.85;32.92;;;;;;;-4.85;100.00;97465.47;5154311;27;20037;-77
2024/01/12 04:19:10;;;;;;;101.38;34.65;;;;;;;-4.74;100.00;97467.19;5136409;27;20023;-75
2024/01/12 04:21:45;;;;;;;78.72;29.30;;;;;;;-4.67;100.00;97470.59;5108361;27;20058;-77
2024/01/12 04:24:11;;;;;;;65.72;25.63;;;;;;;-4.67;100.00;97471.47;5142137;27;20110;-77
2024/01/12 04:26:37;;;;;;;77.25;31.23;;;;;;;-4.68;100.00;97471.50;5143468;27;20035;-77
2024/01/12 04:29:05;;;;;;;89.90;34.92;;;;;;;-4.73;100.00;97461.06;5153803;27;20072;-76
2024/01/12 04:31:31;;;;;;;106.90;37.50;;;;;;;-4.70;100.00;97476.72;5143833;27;20018;-77
2024/01/12 04:33:56;;;;;;;110.00;44.58;;;;;;;-4.67;100.00;97475.81;5135102;27;20031;-75
2024/01/12 04:36:27;;;;;;;107.47;42.58;;;;;;;-4.86;100.00;97482.00;5154372;27;20047;-82
2024/01/12 04:38:57;;;;;;;97.93;39.10;;;;;;;-4.94;100.00;97479.41;5137667;27;20023;-83
2024/01/12 04:41:22;;;;;;;101.03;41.42;;;;;;;-4.95;100.00;97486.34;5137505;27;20034;-80
2024/01/12 04:43:49;;;;;;;105.97;37.28;;;;;;;-4.96;100.00;97492.47;5130839;27;20470;-81
2024/01/12 04:46:21;;;;;;;77.05;34.05;;;;;;;-5.14;100.00;97463.81;5145864;27;20026;-82
2024/01/12 04:48:47;;;;;;;83.18;33.05;;;;;;;-5.13;100.00;97462.94;5122502;27;20091;-81
2024/01/12 04:51:13;;;;;;;70.68;28.30;;;;;;;-5.04;100.00;97488.97;5127688;27;20082;-82
2024/01/12 04:53:38;;;;;;;68.78;28.17;;;;;;;-5.06;100.00;97492.47;5129338;27;20022;-82
2024/01/12 04:56:08;;;;;;;72.15;29.35;;;;;;;-5.13;100.00;97496.81;5136331;27;20113;-82
2024/01/12 04:58:40;;;;;;;66.93;26.63;;;;;;;-5.12;100.00;97506.38;5148269;27;20026;-83
2024/01/12 05:01:05;;;;;;;63.38;29.45;;;;;;;-5.15;100.00;97497.69;5149332;27;20047;-77
2024/01/12 05:03:31;;;;;;;96.78;35.17;;;;;;;-5.18;100.00;97506.41;5151924;27;20088;-76
2024/01/12 05:05:57;;;;;;;95.15;34.05;;;;;;;-5.21;100.00;97503.78;5153158;27;20032;-76
2024/01/12 05:08:25;;;;;;;92.78;33.58;;;;;;;-5.23;100.00;97510.72;5152670;27;20065;-77
2024/01/12 05:10:51;;;;;;;106.28;37.70;;;;;;;-5.27;100.00;97509.00;5152993;27;20025;-75
2024/01/12 05:13:16;;;;;;;91.63;36.63;;;;;;;-5.26;100.00;97521.16;5134071;27;20125;-76
2024/01/12 05:15:42;;;;;;;93.47;33.45;;;;;;;-5.21;100.00;97522.03;5153112;27;20487;-75
2024/01/12 05:18:10;;;;;;;75.38;31.02;;;;;;;-5.25;100.00;97522.03;5153055;27;20015;-82
2024/01/12 05:20:36;;;;;;;82.85;34.42;;;;;;;-5.34;100.00;97498.59;5126448;27;20022;-79
2024/01/12 05:23:03;;;;;;;96.93;38.00;;;;;;;-5.11;100.00;97536.81;5125251;27;20548;-82
2024/01/12 05:25:40;;;;;;;88.47;35.17;;;;;;;-5.24;100.00;97529.88;5143722;27;20019;-81
2024/01/12 05:28:05;;;;;;;89.90;34.20;;;;;;;-5.21;100.00;97545.50;5105374;27;20026;-80
2024/01/12 05:30:35;;;;;;;94.38;36.55;;;;;;;-5.19;100.00;97543.75;5116920;27;20025;-81
2024/01/12 05:33:02;;;;;;;70.93;27.80;;;;;;;-5.30;100.00;97522.06;5136911;27;20022;-82
2024/01/12 05:35:28;;;;;;;106.97;41.20;;;;;;;-5.12;100.00;97537.66;5134131;27;20027;-75
2024/01/12 05:37:55;;;;;;;104.88;39.45;;;;;;;-5.03;100.00;97548.09;5130978;27;20481;-75
2024/01/12 05:40:20;;;;;;;90.80;37.10;;;;;;;-4.94;100.00;97550.69;5133458;27;20022;-75
2024/01/12 05:42:46;;;;;;;94.75;35.53;;;;;;;-4.87;100.00;97542.84;5152692;27;20019;-74
2024/01/12 05:45:31;;;;;;;74.13;29.48;;;;;;;-4.86;100.00;97547.19;5152168;27;20017;-76
2024/01/12 05:48:00;;;;;;;69.65;29.00;;;;;;;-4.76;100.00;97557.59;5133705;27;20030;-75
2024/01/12 05:50:26;;;;;;;77.00;28.52;;;;;;;-4.76;100.00;97548.88;5142110;27;20075;-75
2024/01/12 05:52:51;;;;;;;123.78;50.25;;;;;;;-4.92;100.00;97543.72;5138786;27;20022;-74
2024/01/12 05:55:17;;;;;;;141.88;61.33;;;;;;;-5.03;100.00;97540.25;5151984;27;20077;-74
2024/01/12 05:57:42;;;;;;;150.65;59.60;;;;;;;-5.04;100.00;97542.84;5138494;27;20029;-76
2024/01/12 06:00:09;;;;;;;146.85;59.33;;;;;;;-4.99;100.00;97551.56;5133100;27;20058;-75
2024/01/12 06:02:35;;;;;;;133.85;48.92;;;;;;;-5.01;100.00;97553.28;5133488;27;20027;-74
2024/01/12 06:05:00;;;;;;;104.53;41.95;;;;;;;-5.06;100.00;97545.47;5152447;27;20083;-76
2024/01/12 06:07:29;;;;;;;126.30;48.25;;;;;;;-5.05;100.00;97560.25;5116183;27;20554;-75
2024/01/12 06:09:54;;;;;;;96.28;41.03;;;;;;;-5.15;100.00;97542.88;5120390;27;20031;-77
2024/01/12 06:12:20;;;;;;;104.63;41.85;;;;;;;-5.03;100.00;97550.69;5149024;27;20026;-76
2024/01/12 06:14:46;;;;;;;90.78;38.22;;;;;;;-5.06;100.00;97550.69;5152202;27;20106;-75
2024/01/12 06:17:12;;;;;;;103.28;41.35;;;;;;;-5.10;100.00;97543.72;5116510;27;20026;-75
2024/01/12 06:19:38;;;;;;;116.50;45.35;;;;;;;-5.04;100.00;97546.34;5151706;27;20037;-74
2024/01/12 06:22:04;;;;;;;111.28;43.35;;;;;;;-5.06;100.00;97550.69;5145086;27;20091;-75
2024/01/12 06:24:30;;;;;;;125.65;48.80;;;;;;;-5.06;100.00;97558.50;5133249;27;20493;-75
2024/01/12 06:26:55;;;;;;;117.80;46.83;;;;;;;-5.06;100.00;97555.03;5130049;27;20034;-76
2024/01/12 06:29:21;;;;;;;122.30;51.72;;;;;;;-5.16;100.00;97559.38;5129646;27;20529;-75
2024/01/12 06:31:47;;;;;;;177.40;64.53;;;;;;;-5.13;100.00;97558.50;5150830;27;20029;-75
2024/01/12 06:34:13;;;;;;;184.48;65.82;;;;;;;-5.06;100.00;97568.94;5150421;27;20114;-75
2024/01/12 06:36:43;;;;;;;163.70;63.75;;;;;;;-5.10;100.00;97575.03;5151499;27;20101;-75
2024/01/12 06:39:08;;;;;;;144.48;55.38;;;;;;;-5.16;100.00;97580.22;5137521;27;20409;-76
2024/01/12 06:41:34;;;;;;;112.57;42.85;;;;;;;-5.19;100.00;97579.38;5150085;27;20097;-73
2024/01/12 06:44:03;;;;;;;106.40;43.80;;;;;;;-5.15;100.00;97573.28;5151810;27;20026;-75
2024/01/12 06:46:28;;;;;;;105.53;48.33;;;;;;;-5.19;100.00;97568.94;5138926;27;20027;-75
2024/01/12 06:48:57;;;;;;;141.85;53.88;;;;;;;-5.15;100.00;97563.72;5152264;27;20029;-76
2024/01/12 06:51:26;;;;;;;105.63;42.70;;;;;;;-5.14;100.00;97578.53;5155275;27;20027;-74
2024/01/12 06:53:54;;;;;;;105.00;39.75;;;;;;;-5.23;100.00;97573.28;5137157;27;20102;-76
2024/01/12 06:56:23;;;;;;;88.70;37.63;;;;;;;-5.22;100.00;97568.94;5155420;27;20027;-76
2024/01/12 06:58:49;;;;;;;108.28;43.72;;;;;;;-5.07;100.00;97582.84;5155413;27;20023;-77
2024/01/12 07:01:18;;;;;;;116.70;47.35;;;;;;;-5.01;100.00;97585.44;5175712;27;20057;-75
2024/01/12 07:03:51;;;;;;;113.75;44.97;;;;;;;-4.88;100.00;97588.91;5138849;27;20030;-76
2024/01/12 07:06:17;;;;;;;114.88;48.92;;;;;;;-4.84;100.00;97589.78;5157957;27;20461;-75
2024/01/12 07:08:45;;;;;;;128.88;51.53;;;;;;;-3.93;100.00;97593.84;5154992;27;20489;-75
2024/01/12 07:11:11;;;;;;;147.98;59.33;;;;;;;-2.50;100.00;97595.41;5176278;27;20082;-75
2024/01/12 07:13:36;;;;;;;162.70;61.33;;;;;;;-1.34;100.00;97590.44;5157134;27;20038;-75
2024/01/12 07:16:05;;;;;;;189.13;68.75;;;;;;;-0.23;100.00;97578.94;5176201;27;20038;-77
2024/01/12 07:18:31;;;;;;;123.40;48.30;;;;;;;0.38;100.00;97568.03;5139690;27;20489;-75
2024/01/12 07:21:02;;;;;;;121.15;49.65;;;;;;;1.31;100.00;97559.69;5136703;27;20084;-74
2024/01/12 07:23:30;;;;;;;164.80;62.05;;;;;;;2.41;100.00;97552.22;5136021;27;20454;-76
2024/01/12 07:25:57;;;;;;;194.55;73.95;;;;;;;2.92;100.00;97553.28;5155319;27;20074;-75
2024/01/12 07:28:23;;;;;;;159.68;73.72;;;;;;;3.58;98.31;97550.19;5152479;27;20422;-75
2024/01/12 07:30:56;;;;;;;122.85;56.33;;;;;;;4.23;88.99;97547.84;5175511;27;20542;-77
2024/01/12 07:33:24;;;;;;;217.93;94.07;;;;;;;4.67;80.08;97543.50;5168013;27;20123;-75
2024/01/12 07:35:50;;;;;;;180.07;81.32;;;;;;;5.09;74.49;97548.03;5154921;27;20082;-72
2024/01/12 07:38:16;;;;;;;115.90;52.70;;;;;;;4.98;72.76;97544.97;5155651;27;20450;-71
2024/01/12 07:40:41;;;;;;;76.15;35.22;;;;;;;5.70;70.21;97541.91;5148131;27;20040;-72
2024/01/12 07:43:07;;;;;;;65.00;31.60;;;;;;;6.64;65.94;97547.47;5143667;27;20517;-73
2024/01/12 07:45:32;;;;;;;60.03;28.27;;;;;;;6.65;63.50;97544.72;5154008;27;20018;-74
2024/01/12 07:47:58;;;;;;;63.17;30.88;;;;;;;6.95;61.49;97550.44;5137343;27;20022;-72
2024/01/12 07:50:24;;;;;;;63.45;32.03;;;;;;;6.43;63.01;97573.22;5139751;27;20027;-72
2024/01/12 07:52:49;;;;;;;59.83;31.02;;;;;;;6.29;64.34;97568.53;5137070;27;20022;-71
2024/01/12 07:55:15;;;;;;;66.32;35.10;;;;;;;6.01;66.19;97575.97;5135589;27;20033;-72
2024/01/12 07:57:41;;;;;;;64.70;33.95;;;;;;;6.09;68.09;97579.16;5118350;27;20121;-75
2024/01/12 08:00:07;;;;;;;62.28;32.92;;;;;;;6.49;67.01;97578.28;5134767;27;20106;-75
2024/01/12 08:02:36;;;;;;;67.65;30.08;;;;;;;6.90;64.23;97582.53;5135597;27;20027;-76
2024/01/12 08:05:02;;;;;;;54.75;27.55;;;;;;;7.08;61.62;97580.78;5135288;27;20087;-74
2024/01/12 08:07:39;;;;;;;45.38;24.45;;;;;;;7.37;62.02;97585.59;5135910;27;20553;-75
2024/01/12 08:10:05;;;;;;;47.83;23.40;;;;;;;7.86;59.90;97589.34;5118922;27;20125;-74
2024/01/12 08:12:31;;;;;;;52.92;28.63;;;;;;;8.10;58.78;97582.75;5135064;27;20054;-75
2024/01/12 08:14:56;;;;;;;52.65;24.52;;;;;;;8.54;57.41;97591.13;5154050;27;20451;-76
2024/01/12 08:17:28;;;;;;;44.08;21.90;;;;;;;8.01;57.97;97596.56;5150862;27;20503;-75
2024/01/12 08:19:53;;;;;;;37.90;20.67;;;;;;;8.72;55.92;97594.63;5136378;27;20026;-76
2024/01/12 08:22:22;;;;;;;36.65;18.63;;;;;;;8.50;55.22;97597.56;5152679;27;20410;-75
2024/01/12 08:24:48;;;;;;;36.80;18.48;;;;;;;8.09;57.75;97598.84;5152632;27;20058;-75
2024/01/12 08:27:13;;;;;;;34.33;17.23;;;;;;;8.28;56.70;97593.44;5152380;27;20959;-75
2024/01/12 08:29:45;;;;;;;37.80;18.35;;;;;;;7.92;59.26;97605.00;5153667;27;20413;-77
2024/01/12 08:32:11;;;;;;;31.00;15.70;;;;;;;8.72;56.31;97597.28;5127730;27;20117;-75
2024/01/12 08:34:37;;;;;;;29.90;15.18;;;;;;;9.40;55.58;97595.28;5153701;27;20022;-76
2024/01/12 08:37:03;;;;;;;20.52;11.38;;;;;;;10.10;52.39;97578.69;5136666;27;20075;-75
2024/01/12 08:39:29;;;;;;;23.20;13.10;;;;;;;10.08;52.18;97592.16;5152246;27;20102;-75
2024/01/12 08:41:55;;;;;;;35.38;16.08;;;;;;;9.53;53.29;97588.31;5153543;27;20053;-75
2024/01/12 08:44:20;;;;;;;32.08;17.05;;;;;;;10.47;51.72;97590.75;5153094;27;20030;-76
2024/01/12 08:46:46;;;;;;;32.22;17.42;;;;;;;10.53;51.49;97590.38;5117544;27;20457;-76
2024/01/12 08:49:12;;;;;;;38.50;19.33;;;;;;;10.66;49.61;97580.66;5153119;27;20029;-75
2024/01/12 08:51:37;;;;;;;34.15;17.65;;;;;;;10.43;50.27;97590.06;5151841;27;20470;-74
2024/01/12 08:54:03;;;;;;;36.53;18.65;;;;;;;10.83;49.47;97589.34;5152962;27;20026;-75
2024/01/12 08:56:29;;;;;;;24.33;13.90;;;;;;;11.04;47.29;97586.28;5151732;27;20468;-75
2024/01/12 08:58:54;;;;;;;34.28;15.43;;;;;;;11.53;45.89;97578.66;5151975;27;20072;-74
2024/01/12 09:01:20;;;;;;;24.90;14.20;;;;;;;11.89;45.37;97581.59;5152787;27;20097;-74
2024/01/12 09:03:46;;;;;;;29.95;16.02;;;;;;;11.54;46.74;97586.56;5153250;27;20029;-73
2024/01/12 09:06:11;;;;;;;34.63;18.13;;;;;;;11.55;46.78;97592.78;5152712;27;20106;-73
2024/01/12 09:08:37;;;;;;;37.40;21.17;;;;;;;9.96;47.27;97606.25;5152679;27;20079;-73
2024/01/12 09:11:04;;;;;;;41.03;22.58;;;;;;;10.51;47.39;97597.63;5151130;27;20049;-74
2024/01/12 09:13:29;;;;;;;43.10;21.75;;;;;;;11.06;46.83;97598.63;5152189;27;20022;-74
2024/01/12 09:15:55;;;;;;;56.65;30.08;;;;;;;10.54;48.09;97609.00;5152641;27;20105;-74
2024/01/12 09:18:20;;;;;;;77.32;40.28;;;;;;;8.53;52.37;97639.19;5134221;27;20498;-74
2024/01/12 09:20:46;;;;;;;74.63;38.92;;;;;;;8.28;57.41;97652.06;5119322;27;20098;-75
2024/01/12 09:23:12;;;;;;;78.63;40.72;;;;;;;9.29;55.80;97651.94;5152273;27;20029;-74
2024/01/12 09:25:37;;;;;;;81.18;41.58;;;;;;;9.02;55.85;97654.31;5151328;27;20088;-75
2024/01/12 09:28:03;;;;;;;95.53;49.10;;;;;;;9.23;55.70;97657.59;5151360;27;20056;-74
2024/01/12 09:30:29;;;;;;;93.57;49.70;;;;;;;9.95;53.62;97641.94;5152754;27;20027;-75
2024/01/12 09:32:54;;;;;;;99.35;51.38;;;;;;;9.85;52.43;97634.50;5135232;27;20030;-75
2024/01/12 09:35:20;;;;;;;97.22;53.25;;;;;;;10.62;51.87;97633.47;5133942;27;20401;-74
2024/01/12 09:37:45;;;;;;;96.10;52.67;;;;;;;11.02;50.40;97626.53;5134134;27;20029;-75
2024/01/12 09:40:11;;;;;;;101.18;53.42;;;;;;;10.95;50.54;97633.19;5152115;27;20034;-74
2024/01/12 09:42:44;;;;;;;91.10;47.58;;;;;;;11.31;49.21;97630.06;5152429;27;20064;-75
2024/01/12 09:45:13;;;;;;;;;;;;;;;10.38;50.60;97634.09;5151452;27;20030;-76
2024/01/12 09:47:40;;;;;;;82.28;43.00;;;;;;;10.75;49.83;97634.44;5133681;27;19990;-75
2024/01/12 09:50:07;;;;;;;60.53;32.50;;;;;;;11.10;47.20;97613.53;5150879;27;20033;-74
2024/01/12 09:52:32;;;;;;;79.50;42.83;;;;;;;11.37;47.08;97603.75;5141988;27;20039;-76
2024/01/12 09:54:58;;;;;;;72.53;40.42;;;;;;;12.04;46.86;97612.75;5150140;27;20125;-76
2024/01/12 09:57:24;;;;;;;64.60;34.97;;;;;;;12.80;46.05;97608.38;5151853;27;20098;-75
2024/01/12 09:59:51;;;;;;;59.38;32.97;;;;;;;13.79;42.38;97587.78;5150716;27;20151;-75
2024/01/12 10:02:17;;;;;;;57.67;31.33;;;;;;;13.93;40.43;97574.19;5150609;27;20155;-75
2024/01/12 10:04:43;;;;;;;37.83;20.73;;;;;;;13.75;39.89;97571.03;5150931;27;20121;-75
2024/01/12 10:07:09;;;;;;;27.35;15.52;;;;;;;12.65;39.82;97566.50;5150772;27;20136;-78
2024/01/12 10:09:34;;;;;;;16.58;8.95;;;;;;;12.91;38.88;97564.69;5138361;27;20061;-76
2024/01/12 10:12:00;;;;;;;15.30;8.10;;;;;;;12.89;39.32;97569.28;5133500;27;20022;-76
2024/01/12 10:14:26;;;;;;;17.30;8.70;;;;;;;13.15;37.76;97557.56;5133359;27;20072;-77
2024/01/12 10:16:55;;;;;;;19.83;11.60;;;;;;;12.72;38.18;97554.38;5133703;27;20099;-72
2024/01/12 10:19:22;;;;;;;26.20;12.65;;;;;;;13.41;38.12;97555.69;5116336;27;20033;-72
2024/01/12 10:21:48;;;;;;;29.48;14.65;;;;;;;14.45;37.62;97555.84;5133132;27;20033;-72
2024/01/12 10:24:19;;;;;;;23.30;12.50;;;;;;;14.77;36.13;97549.75;5135563;27;20058;-70
2024/01/12 10:26:49;;;;;;;22.52;11.02;;;;;;;14.68;37.36;97551.34;5137921;27;20011;-72
2024/01/12 10:29:15;;;;;;;20.13;11.68;;;;;;;14.60;35.79;97546.56;5120262;27;20033;-72
2024/01/12 10:31:43;;;;;;;22.10;12.32;;;;;;;14.17;36.50;97542.75;5137573;27;20493;-72
2024/01/12 10:34:13;;;;;;;22.52;11.57;;;;;;;14.59;36.17;97544.84;5137776;27;20404;-72
2024/01/12 10:36:40;;;;;;;24.33;13.20;;;;;;;15.52;35.10;97537.41;5137404;27;20031;-71
2024/01/12 10:39:10;;;;;;;17.98;9.70;;;;;;;15.00;36.30;97546.09;5120269;27;20110;-72
2024/01/12 10:41:36;;;;;;;15.95;8.32;;;;;;;16.22;33.51;97532.38;5129968;27;20027;-73
2024/01/12 10:44:06;;;;;;;19.80;9.90;;;;;;;15.99;33.37;97536.16;5154612;27;20029;-73
2024/01/12 10:46:48;;;;;;;16.02;9.40;;;;;;;15.68;33.00;97533.31;5154701;27;20084;-73
2024/01/12 10:49:22;;;;;;;22.38;11.57;;;;;;;16.01;33.81;97532.34;5154579;27;20387;-72
2024/01/12 10:52:14;;;;;;;16.67;9.80;;;;;;;16.52;32.76;97537.84;5154265;27;20099;-73
2024/01/12 10:54:46;;;;;;;16.05;9.23;;;;;;;16.39;32.67;97537.19;5154344;27;20470;-72
2024/01/12 10:57:12;;;;;;;23.05;10.27;;;;;;;16.55;32.11;97534.91;5155165;27;20468;-72
2024/01/12 10:59:38;;;;;;;19.48;10.60;;;;;;;16.58;32.62;97539.22;5154055;27;20131;-73
2024/01/12 11:02:04;;;;;;;25.77;12.32;;;;;;;17.12;32.32;97541.63;5154310;27;20058;-72
2024/01/12 11:04:31;;;;;;;133.80;117.43;;;;;;;16.36;33.83;97542.88;5154208;27;20027;-73
2024/01/12 11:06:58;;;;;;;18.35;9.50;;;;;;;15.40;35.06;97557.22;5153942;27;20521;-72
2024/01/12 11:09:24;;;;;;;15.98;9.63;;;;;;;15.68;35.11;97552.19;5136954;27;20046;-72
2024/01/12 11:11:56;;;;;;;19.15;10.85;;;;;;;15.52;35.61;97553.56;5153860;27;20026;-72
2024/01/12 11:14:22;;;;;;;22.63;12.32;;;;;;;15.59;34.53;97552.97;5154136;27;20470;-72
2024/01/12 11:16:48;;;;;;;24.45;13.25;;;;;;;16.11;34.14;97546.78;5154878;27;20031;-73